createdAt,value
2019-03-13T00:00:52.071Z,4.48
2019-03-13T00:03:18.699Z,4.50
2019-03-13T00:05:45.397Z,4.51
2019-03-13T00:08:12.074Z,4.50
2019-03-13T00:10:38.663Z,4.51
2019-03-13T00:13:05.365Z,4.50
2019-03-13T00:15:31.966Z,4.46
2019-03-13T00:17:58.556Z,4.44
2019-03-13T00:20:25.189Z,4.40
2019-03-13T00:22:51.789Z,4.35
2019-03-13T00:25:18.203Z,4.31
2019-03-13T00:27:44.803Z,4.28
2019-03-13T00:30:11.820Z,4.26
2019-03-13T00:32:38.419Z,4.22
2019-03-13T00:35:05.372Z,4.17
2019-03-13T00:37:31.971Z,4.14
2019-03-13T00:39:58.586Z,4.14
2019-03-13T00:42:25.211Z,4.12
2019-03-13T00:44:51.919Z,4.14
2019-03-13T00:47:18.631Z,4.15
2019-03-13T00:49:45.249Z,4.16
2019-03-13T00:52:11.893Z,4.17
2019-03-13T00:54:38.556Z,4.17
2019-03-13T00:57:05.163Z,4.15
2019-03-13T00:59:31.857Z,4.13
2019-03-13T01:02:16.905Z,4.08
2019-03-13T01:04:51.719Z,4.10
2019-03-13T01:07:18.307Z,4.15
2019-03-13T01:09:44.899Z,4.20
2019-03-13T01:12:11.506Z,4.22
2019-03-13T01:14:38.130Z,4.27
2019-03-13T01:17:05.606Z,4.31
2019-03-13T01:19:32.300Z,4.35
2019-03-13T01:21:58.901Z,4.40
2019-03-13T01:24:25.515Z,4.45
2019-03-13T01:26:52.207Z,4.48
2019-03-13T01:29:18.841Z,4.44
2019-03-13T01:32:23.144Z,4.38
2019-03-13T01:35:15.223Z,4.32
2019-03-13T01:37:41.816Z,4.26
2019-03-13T01:40:10.400Z,4.22
2019-03-13T01:42:37.082Z,4.20
2019-03-13T01:45:04.057Z,4.17
2019-03-13T01:47:30.655Z,4.16
2019-03-13T01:49:57.346Z,4.17
2019-03-13T01:52:23.948Z,4.17
2019-03-13T01:54:50.534Z,4.17
2019-03-13T01:57:17.140Z,4.16
2019-03-13T01:59:43.734Z,4.15
2019-03-13T02:02:10.343Z,4.14
2019-03-13T02:04:37.034Z,4.13
2019-03-13T02:07:03.636Z,4.17
2019-03-13T02:09:30.240Z,4.24
2019-03-13T02:11:56.830Z,4.27
2019-03-13T02:14:23.436Z,4.67
2019-03-13T02:16:50.126Z,5.14
2019-03-13T02:19:16.751Z,5.54
2019-03-13T02:21:43.356Z,6.29
2019-03-13T02:24:10.042Z,6.64
2019-03-13T02:26:36.624Z,7.02
2019-03-13T02:29:03.209Z,7.26
2019-03-13T02:31:29.818Z,7.44
2019-03-13T02:33:56.498Z,7.63
2019-03-13T02:36:23.188Z,7.99
2019-03-13T02:38:49.806Z,8.15
2019-03-13T02:41:16.512Z,8.27
2019-03-13T02:43:43.193Z,8.26
2019-03-13T02:46:09.898Z,8.15
2019-03-13T02:48:36.484Z,8.07
2019-03-13T02:51:03.170Z,8.03
2019-03-13T02:53:29.875Z,8.00
2019-03-13T02:55:56.578Z,7.93
2019-03-13T02:58:23.171Z,7.85
2019-03-13T03:01:02.994Z,7.89
2019-03-13T03:03:32.006Z,7.95
2019-03-13T03:05:59.562Z,8.02
2019-03-13T03:08:26.162Z,8.05
2019-03-13T03:10:52.775Z,8.02
2019-03-13T03:13:19.501Z,7.99
2019-03-13T03:15:46.094Z,8.02
2019-03-13T03:18:12.679Z,7.98
2019-03-13T03:20:39.277Z,7.92
2019-03-13T03:23:05.913Z,7.94
2019-03-13T03:25:32.511Z,7.88
2019-03-13T03:27:59.217Z,7.95
2019-03-13T03:30:25.922Z,7.96
2019-03-13T03:32:52.671Z,8.09
2019-03-13T03:35:19.321Z,8.14
2019-03-13T03:37:45.945Z,8.11
2019-03-13T03:40:21.325Z,8.14
2019-03-13T03:42:44.982Z,8.16
2019-03-13T03:45:11.673Z,8.19
2019-03-13T03:47:38.452Z,8.09
2019-03-13T03:50:05.629Z,8.01
2019-03-13T03:52:32.330Z,7.95
2019-03-13T03:54:58.926Z,7.89
2019-03-13T03:57:25.530Z,7.82
2019-03-13T03:59:52.239Z,7.68
2019-03-13T04:02:18.835Z,7.63
2019-03-13T04:04:45.439Z,7.41
2019-03-13T04:07:12.016Z,7.23
2019-03-13T04:09:38.644Z,7.09
2019-03-13T04:12:05.265Z,6.95
2019-03-13T04:14:31.947Z,6.87
2019-03-13T04:16:58.539Z,6.72
2019-03-13T04:19:25.240Z,6.66
2019-03-13T04:21:52.010Z,6.59
2019-03-13T04:24:18.627Z,6.42
2019-03-13T04:26:45.891Z,6.28
2019-03-13T04:29:12.469Z,6.16
2019-03-13T04:31:39.077Z,6.04
2019-03-13T04:34:05.664Z,5.99
2019-03-13T04:36:32.257Z,5.92
2019-03-13T04:38:58.862Z,5.84
2019-03-13T04:41:25.539Z,5.80
2019-03-13T04:43:52.121Z,5.78
2019-03-13T04:46:18.742Z,5.84
2019-03-13T04:48:45.336Z,5.76
2019-03-13T04:51:11.962Z,5.69
2019-03-13T04:53:38.552Z,5.71
2019-03-13T04:56:05.167Z,5.71
2019-03-13T04:58:31.780Z,5.69
2019-03-13T05:00:58.393Z,5.69
2019-03-13T05:03:24.980Z,5.66
2019-03-13T05:06:03.231Z,5.65
2019-03-13T05:08:52.464Z,5.61
2019-03-13T05:11:19.162Z,5.64
2019-03-13T05:13:45.777Z,5.70
2019-03-13T05:16:12.477Z,5.77
2019-03-13T05:18:39.091Z,5.80
2019-03-13T05:21:05.705Z,5.88
2019-03-13T05:23:32.389Z,5.90
2019-03-13T05:25:59.088Z,5.86
2019-03-13T05:28:25.675Z,5.84
2019-03-13T05:30:53.208Z,5.79
2019-03-13T05:33:20.012Z,5.79
2019-03-13T05:35:46.691Z,5.88
2019-03-13T05:38:13.396Z,5.98
2019-03-13T05:40:40.091Z,6.12
2019-03-13T05:43:06.809Z,6.21
2019-03-13T05:45:33.395Z,6.37
2019-03-13T05:48:00.094Z,6.38
2019-03-13T05:50:26.722Z,6.28
2019-03-13T05:52:53.455Z,6.10
2019-03-13T05:55:20.052Z,6.08
2019-03-13T05:57:46.661Z,6.23
2019-03-13T06:00:15.089Z,6.39
2019-03-13T06:02:41.687Z,6.37
2019-03-13T06:05:33.981Z,6.28
2019-03-13T06:08:00.733Z,6.25
2019-03-13T06:10:27.321Z,6.31
2019-03-13T06:12:53.969Z,6.42
2019-03-13T06:15:20.566Z,6.41
2019-03-13T06:17:47.177Z,6.58
2019-03-13T06:20:13.780Z,6.83
2019-03-13T06:22:40.372Z,6.83
2019-03-13T06:25:07.907Z,6.71
2019-03-13T06:27:34.649Z,6.63
2019-03-13T06:30:01.267Z,6.88
2019-03-13T06:32:27.944Z,7.17
2019-03-13T06:34:54.547Z,7.43
2019-03-13T06:37:21.243Z,7.59
2019-03-13T06:39:47.937Z,7.48
2019-03-13T06:42:14.533Z,7.26
2019-03-13T06:44:41.132Z,7.10
2019-03-13T06:47:07.754Z,6.92
2019-03-13T06:49:34.467Z,6.59
2019-03-13T06:52:01.183Z,6.23
2019-03-13T06:54:27.891Z,5.94
2019-03-13T06:56:54.476Z,5.71
2019-03-13T06:59:40.574Z,5.51
2019-03-13T07:02:26.658Z,5.41
2019-03-13T07:05:12.749Z,5.33
2019-03-13T07:07:59.035Z,5.26
2019-03-13T07:10:45.211Z,5.21
2019-03-13T07:13:31.410Z,5.18
2019-03-13T07:16:17.495Z,5.14
2019-03-13T07:18:52.005Z,5.10
2019-03-13T07:21:38.197Z,5.09
2019-03-13T07:24:09.134Z,5.09
2019-03-13T07:26:39.766Z,5.09
2019-03-13T07:29:13.284Z,5.03
2019-03-13T07:31:59.384Z,4.93
2019-03-13T07:34:33.070Z,4.75
2019-03-13T07:37:19.258Z,4.63
2019-03-13T07:40:05.442Z,4.55
2019-03-13T07:42:39.118Z,4.56
2019-03-13T07:45:12.098Z,4.56
2019-03-13T07:47:48.462Z,4.52
2019-03-13T07:50:34.544Z,4.56
2019-03-13T07:53:20.660Z,4.62
2019-03-13T07:56:06.846Z,4.65
2019-03-13T07:58:53.023Z,4.59
2019-03-13T08:01:23.967Z,4.60
2019-03-13T08:04:10.163Z,4.58
2019-03-13T08:06:56.345Z,4.58
2019-03-13T08:09:42.529Z,4.64
2019-03-13T08:12:28.643Z,4.67
2019-03-13T08:15:12.631Z,4.70
2019-03-13T08:17:58.705Z,4.77
2019-03-13T08:20:37.707Z,4.94
2019-03-13T08:23:22.217Z,5.07
2019-03-13T08:26:08.397Z,5.10
2019-03-13T08:28:54.607Z,5.13
2019-03-13T08:31:40.789Z,5.12
2019-03-13T08:34:26.865Z,5.14
2019-03-13T08:37:12.965Z,5.13
2019-03-13T08:39:59.044Z,5.12
2019-03-13T08:42:31.309Z,5.16
2019-03-13T08:45:17.373Z,5.25
2019-03-13T08:48:03.502Z,5.31
2019-03-13T08:50:49.701Z,5.41
2019-03-13T08:53:35.819Z,5.51
2019-03-13T08:56:21.997Z,5.62
2019-03-13T08:59:08.105Z,5.73
2019-03-13T09:01:54.301Z,5.90
2019-03-13T09:04:29.128Z,6.10
2019-03-13T09:07:15.238Z,6.34
2019-03-13T09:10:01.452Z,6.46
2019-03-13T09:12:47.644Z,6.44
2019-03-13T09:15:33.738Z,6.45
2019-03-13T09:18:19.859Z,6.53
2019-03-13T09:21:06.039Z,6.62
2019-03-13T09:23:52.238Z,6.83
2019-03-13T09:26:31.057Z,7.07
2019-03-13T09:29:17.286Z,7.25
2019-03-13T09:32:03.432Z,7.55
2019-03-13T09:34:49.548Z,7.70
2019-03-13T09:37:35.759Z,7.89
2019-03-13T09:40:22.136Z,7.98
2019-03-13T09:43:08.336Z,7.99
2019-03-13T09:45:54.567Z,7.94
2019-03-13T09:48:40.772Z,7.88
2019-03-13T09:51:26.946Z,7.87
2019-03-13T09:54:13.082Z,7.92
2019-03-13T09:56:59.290Z,7.77
2019-03-13T09:59:45.450Z,7.64
2019-03-13T10:02:31.545Z,7.64
2019-03-13T10:05:17.737Z,7.87
2019-03-13T10:08:03.945Z,8.17
2019-03-13T10:10:50.152Z,8.30
2019-03-13T10:13:55.888Z,8.26
2019-03-13T10:16:42.034Z,8.28
2019-03-13T10:19:28.148Z,8.11
2019-03-13T10:22:14.336Z,8.07
2019-03-13T10:25:00.569Z,7.98
2019-03-13T10:27:46.763Z,8.04
2019-03-13T10:30:18.605Z,7.96
2019-03-13T10:32:51.590Z,7.93
2019-03-13T10:35:37.678Z,7.87
2019-03-13T10:38:23.961Z,7.77
2019-03-13T10:41:10.325Z,7.57
2019-03-13T10:43:56.773Z,7.50
2019-03-13T10:46:39.013Z,7.38
2019-03-13T10:49:25.211Z,7.49
2019-03-13T10:52:11.410Z,7.53
2019-03-13T10:54:57.607Z,7.60
2019-03-13T10:57:35.430Z,7.58
2019-03-13T11:00:21.515Z,7.69
2019-03-13T11:03:04.079Z,8.05
2019-03-13T11:05:50.174Z,8.23
2019-03-13T11:08:21.669Z,8.29
2019-03-13T11:11:07.802Z,8.25
2019-03-13T11:13:54.013Z,8.32
2019-03-13T11:16:40.261Z,8.61
2019-03-13T11:19:15.664Z,8.75
2019-03-13T11:22:01.764Z,8.72
2019-03-13T11:24:47.961Z,8.70
2019-03-13T11:27:34.067Z,8.52
2019-03-13T11:30:07.186Z,8.44
2019-03-13T11:32:53.378Z,8.46
2019-03-13T11:35:39.478Z,8.42
2019-03-13T11:38:25.666Z,8.37
2019-03-13T11:41:11.762Z,8.44
2019-03-13T11:43:57.876Z,8.72
2019-03-13T11:46:44.076Z,9.02
2019-03-13T11:49:30.295Z,9.22
2019-03-13T11:52:16.484Z,9.68
2019-03-13T11:55:02.672Z,10.22
2019-03-13T11:57:48.848Z,10.57
2019-03-13T12:00:35.050Z,10.19
2019-03-13T12:03:11.582Z,9.69
2019-03-13T12:05:57.730Z,9.29
2019-03-13T12:08:43.870Z,9.01
2019-03-13T12:11:30.064Z,8.77
2019-03-13T12:14:16.264Z,8.57
2019-03-13T12:17:02.504Z,8.31
2019-03-13T12:19:48.673Z,8.17
2019-03-13T12:22:34.852Z,8.15
2019-03-13T12:25:21.042Z,8.13
2019-03-13T12:28:07.245Z,8.13
2019-03-13T12:30:53.343Z,8.08
2019-03-13T12:33:39.537Z,8.13
2019-03-13T12:36:25.717Z,8.30
2019-03-13T12:39:11.853Z,8.33
2019-03-13T12:41:48.040Z,8.38
2019-03-13T12:44:34.226Z,9.05
2019-03-13T12:47:20.407Z,10.09
2019-03-13T12:50:06.603Z,10.34
2019-03-13T12:52:52.790Z,10.23
2019-03-13T12:55:38.977Z,10.13
2019-03-13T12:58:25.084Z,9.97
2019-03-13T13:01:11.314Z,9.71
2019-03-13T13:03:57.489Z,9.84
2019-03-13T13:06:43.676Z,10.72
2019-03-13T13:09:29.772Z,11.24
2019-03-13T13:12:08.015Z,11.99
2019-03-13T13:14:54.207Z,12.25
2019-03-13T13:17:31.398Z,12.30
2019-03-13T13:19:58.089Z,11.97
2019-03-13T13:22:24.695Z,11.82
2019-03-13T13:24:51.290Z,12.04
2019-03-13T13:27:17.912Z,11.98
2019-03-13T13:29:44.535Z,11.96
2019-03-13T13:32:11.141Z,11.84
2019-03-13T13:34:37.826Z,11.84
2019-03-13T13:37:04.435Z,12.04
2019-03-13T13:39:31.139Z,12.25
2019-03-13T13:41:57.738Z,12.60
2019-03-13T13:44:24.378Z,12.44
2019-03-13T13:46:51.089Z,12.38
2019-03-13T13:49:17.682Z,12.58
2019-03-13T13:51:44.303Z,12.66
2019-03-13T13:54:11.000Z,13.11
2019-03-13T13:56:37.631Z,12.39
2019-03-13T13:59:04.318Z,11.65
2019-03-13T14:01:30.991Z,11.82
2019-03-13T14:03:57.569Z,11.85
2019-03-13T14:06:24.188Z,11.76
2019-03-13T14:08:50.794Z,11.66
2019-03-13T14:11:17.398Z,11.48
2019-03-13T14:13:44.021Z,11.08
2019-03-13T14:16:10.646Z,10.93
2019-03-13T14:18:37.348Z,10.90
2019-03-13T14:21:03.949Z,11.04
2019-03-13T14:23:30.591Z,10.78
2019-03-13T14:25:57.295Z,10.43
2019-03-13T14:28:24.015Z,10.28
2019-03-13T14:30:50.710Z,10.36
2019-03-13T14:33:17.418Z,10.25
2019-03-13T14:35:46.360Z,10.55
2019-03-13T14:38:18.710Z,10.69
2019-03-13T14:40:45.343Z,10.37
2019-03-13T14:43:11.951Z,10.41
2019-03-13T14:45:38.574Z,10.83
2019-03-13T14:48:05.178Z,10.78
2019-03-13T14:50:31.795Z,10.58
2019-03-13T14:52:58.301Z,10.46
2019-03-13T14:55:24.913Z,10.81
2019-03-13T14:57:51.527Z,10.30
2019-03-13T15:00:18.161Z,9.65
2019-03-13T15:02:44.762Z,9.29
2019-03-13T15:05:11.414Z,8.84
2019-03-13T15:07:38.127Z,8.60
2019-03-13T15:10:04.949Z,8.41
2019-03-13T15:12:31.623Z,8.26
2019-03-13T15:15:17.735Z,7.79
2019-03-13T15:17:44.366Z,7.53
2019-03-13T15:20:12.065Z,7.32
2019-03-13T15:22:38.792Z,7.28
2019-03-13T15:25:05.565Z,7.08
2019-03-13T15:27:32.273Z,6.84
2019-03-13T15:29:58.887Z,7.05
2019-03-13T15:32:25.503Z,7.04
2019-03-13T15:34:52.219Z,7.14
2019-03-13T15:37:18.842Z,7.10
2019-03-13T15:39:45.443Z,7.18
2019-03-13T15:42:12.045Z,7.49
2019-03-13T15:44:38.695Z,7.64
2019-03-13T15:47:05.423Z,8.06
2019-03-13T15:49:32.051Z,8.07
2019-03-13T15:51:58.661Z,8.66
2019-03-13T15:54:25.371Z,9.51
2019-03-13T15:56:52.073Z,9.70
2019-03-13T15:59:18.669Z,9.24
2019-03-13T16:01:45.388Z,8.95
2019-03-13T16:04:12.003Z,8.50
2019-03-13T16:06:38.725Z,8.30
2019-03-13T16:09:06.306Z,8.30
2019-03-13T16:11:33.037Z,8.29
2019-03-13T16:13:59.628Z,8.08
2019-03-13T16:16:26.247Z,7.76
2019-03-13T16:18:52.962Z,7.52
2019-03-13T16:21:19.616Z,7.27
2019-03-13T16:23:46.326Z,7.03
2019-03-13T16:26:13.042Z,6.83
2019-03-13T16:28:39.739Z,6.68
2019-03-13T16:33:44.893Z,6.42
2019-03-13T16:36:11.594Z,6.37
2019-03-13T16:38:38.179Z,6.37
2019-03-13T16:41:04.765Z,6.39
2019-03-13T16:43:31.385Z,6.40
2019-03-13T16:45:58.088Z,6.47
2019-03-13T16:48:24.720Z,6.38
2019-03-13T16:50:51.348Z,6.23
2019-03-13T16:53:17.952Z,6.07
2019-03-13T16:55:44.673Z,5.90
2019-03-13T16:58:11.292Z,5.77
2019-03-13T17:00:38.037Z,5.69
2019-03-13T17:03:04.655Z,5.56
2019-03-13T17:05:31.253Z,5.46
2019-03-13T17:07:57.969Z,5.40
2019-03-13T17:10:24.683Z,5.31
2019-03-13T17:12:51.417Z,5.20
2019-03-13T17:15:18.723Z,5.11
2019-03-13T17:17:45.355Z,5.03
2019-03-13T17:20:13.161Z,4.98
2019-03-13T17:22:43.098Z,4.93
2019-03-13T17:25:17.936Z,4.88
2019-03-13T17:27:44.571Z,4.85
2019-03-13T17:30:12.656Z,4.83
2019-03-13T17:32:39.397Z,4.82
2019-03-13T17:35:06.010Z,4.84
2019-03-13T17:37:32.647Z,4.83
2019-03-13T17:39:59.355Z,4.82
2019-03-13T17:42:25.974Z,4.80
2019-03-13T17:44:52.580Z,4.78
2019-03-13T17:47:19.177Z,4.76
2019-03-13T17:49:45.811Z,4.75
2019-03-13T17:52:12.463Z,4.73
2019-03-13T17:54:39.173Z,4.70
2019-03-13T17:57:05.854Z,4.69
2019-03-13T17:59:32.565Z,4.66
2019-03-13T18:01:59.183Z,4.64
2019-03-13T18:04:25.805Z,4.62
2019-03-13T18:06:52.514Z,4.58
2019-03-13T18:09:19.219Z,4.56
2019-03-13T18:11:45.848Z,4.53
2019-03-13T18:14:12.525Z,4.49
2019-03-13T18:16:39.125Z,4.48
2019-03-13T18:19:05.838Z,4.45
2019-03-13T18:21:32.564Z,4.41
2019-03-13T18:23:59.191Z,4.35
2019-03-13T18:26:25.884Z,4.31
2019-03-13T18:28:52.495Z,4.27
2019-03-13T18:31:19.119Z,4.22
2019-03-13T18:33:45.758Z,4.20
2019-03-13T18:36:14.244Z,4.15
2019-03-13T18:38:47.073Z,4.16
2019-03-13T18:41:13.707Z,4.20
2019-03-13T18:43:40.342Z,4.21
2019-03-13T18:46:06.964Z,4.23
2019-03-13T18:48:33.697Z,4.24
2019-03-13T18:51:00.446Z,4.32
2019-03-13T18:53:27.087Z,4.36
2019-03-13T18:55:53.754Z,4.41
2019-03-13T18:58:20.482Z,4.46
2019-03-13T19:00:47.188Z,4.49
2019-03-13T19:03:13.892Z,4.51
2019-03-13T19:05:40.529Z,4.53
2019-03-13T19:08:07.154Z,4.57
2019-03-13T19:10:33.766Z,4.55
2019-03-13T19:13:00.553Z,4.55
2019-03-13T19:15:27.275Z,4.53
2019-03-13T19:17:54.011Z,4.51
2019-03-13T19:20:20.835Z,4.51
2019-03-13T19:22:47.546Z,4.51
2019-03-13T19:28:15.727Z,4.52
2019-03-13T19:30:42.353Z,4.52
2019-03-13T19:33:09.416Z,4.54
2019-03-13T19:35:36.032Z,4.54
2019-03-13T19:38:05.097Z,4.53
2019-03-13T19:40:41.127Z,4.51
2019-03-13T19:43:07.849Z,4.48
2019-03-13T19:45:35.789Z,4.46
2019-03-13T19:48:02.427Z,4.46
2019-03-13T19:50:29.242Z,4.44
2019-03-13T19:52:55.900Z,4.45
2019-03-13T19:55:22.539Z,4.46
2019-03-13T19:57:49.194Z,4.50
2019-03-13T20:00:16.662Z,4.52
2019-03-13T20:02:43.568Z,4.55
2019-03-13T20:05:10.550Z,4.53
2019-03-13T20:07:37.325Z,4.50
2019-03-13T20:10:04.322Z,4.50
2019-03-13T20:12:31.118Z,4.48
2019-03-13T20:14:57.819Z,4.48
2019-03-13T20:17:24.439Z,4.49
2019-03-13T20:19:52.241Z,4.49
2019-03-13T20:22:29.181Z,4.54
2019-03-13T20:24:55.813Z,4.58
2019-03-13T20:27:22.517Z,4.60
2019-03-13T20:29:49.248Z,4.60
2019-03-13T20:32:15.903Z,4.63
2019-03-13T20:34:42.606Z,4.65
2019-03-13T20:37:09.736Z,4.67
2019-03-13T20:39:38.467Z,4.73
2019-03-13T20:42:05.105Z,4.75
2019-03-13T20:44:31.825Z,4.77
2019-03-13T20:46:58.455Z,4.81
2019-03-13T20:49:25.248Z,4.83
2019-03-13T20:51:51.972Z,4.85
2019-03-13T20:54:18.705Z,4.87
2019-03-13T20:56:45.343Z,4.90
2019-03-13T20:59:11.972Z,4.92
2019-03-13T21:01:41.851Z,4.93
2019-03-13T21:04:13.189Z,4.96
2019-03-13T21:06:39.918Z,4.98
2019-03-13T21:09:06.550Z,5.00
2019-03-13T21:11:33.299Z,5.02
2019-03-13T21:13:59.958Z,5.06
2019-03-13T21:16:26.660Z,5.09
2019-03-13T21:18:53.259Z,5.13
2019-03-13T21:21:19.852Z,5.16
2019-03-13T21:23:46.591Z,5.19
2019-03-13T21:26:13.208Z,5.22
2019-03-13T21:28:39.829Z,5.25
2019-03-13T21:31:06.439Z,5.28
2019-03-13T21:33:33.150Z,5.28
2019-03-13T21:35:59.890Z,5.28
2019-03-13T21:38:26.576Z,5.29
2019-03-13T21:40:53.176Z,5.29
2019-03-13T21:43:19.887Z,5.31
2019-03-13T21:45:46.534Z,5.32
2019-03-13T21:48:13.167Z,5.34
2019-03-13T21:50:39.771Z,5.33
2019-03-13T21:53:06.409Z,5.34
2019-03-13T21:55:33.114Z,5.32
2019-03-13T21:57:59.729Z,5.33
2019-03-13T22:00:26.516Z,5.36
2019-03-13T22:02:53.235Z,5.37
2019-03-13T22:05:25.715Z,5.39
2019-03-13T22:07:54.518Z,5.42
2019-03-13T22:10:21.021Z,5.35
2019-03-13T22:12:47.647Z,5.20
2019-03-13T22:15:14.271Z,5.07
2019-03-13T22:17:40.863Z,4.87
2019-03-13T22:20:11.013Z,4.66
2019-03-13T22:22:42.534Z,4.52
2019-03-13T22:25:22.433Z,4.40
2019-03-13T22:27:49.121Z,4.31
2019-03-13T22:30:17.199Z,4.23
2019-03-13T22:32:43.849Z,4.22
2019-03-13T22:35:10.454Z,4.21
2019-03-13T22:37:37.158Z,4.18
2019-03-13T22:40:03.855Z,4.15
2019-03-13T22:42:30.978Z,4.14
2019-03-13T22:45:07.472Z,4.14
2019-03-13T22:47:43.067Z,4.12
2019-03-13T22:50:15.862Z,4.07
2019-03-13T22:52:42.500Z,4.00
2019-03-13T22:55:31.239Z,3.98
2019-03-13T22:57:57.838Z,3.93
2019-03-13T23:00:35.792Z,3.91
2019-03-13T23:03:24.056Z,3.87
2019-03-13T23:05:50.666Z,3.76
2019-03-13T23:08:31.201Z,3.69
2019-03-13T23:10:59.805Z,3.65
2019-03-13T23:13:26.462Z,3.59
2019-03-13T23:15:53.071Z,3.56
2019-03-13T23:18:19.656Z,3.57
2019-03-13T23:20:46.269Z,3.54
2019-03-13T23:23:12.882Z,3.50
2019-03-13T23:25:39.590Z,3.44
2019-03-13T23:28:06.176Z,3.41
2019-03-13T23:30:32.789Z,3.39
2019-03-13T23:32:59.382Z,3.39
2019-03-13T23:35:25.988Z,3.39
2019-03-13T23:37:52.598Z,3.40
2019-03-13T23:40:19.157Z,3.41
2019-03-13T23:42:45.874Z,3.42
2019-03-13T23:45:12.791Z,3.43
2019-03-13T23:47:39.463Z,3.44
2019-03-13T23:50:06.087Z,3.44
2019-03-13T23:52:32.694Z,3.46
2019-03-13T23:54:59.312Z,3.47
2019-03-13T23:57:25.912Z,3.48
2019-03-13T23:59:52.526Z,3.51
